Portada
METAR-TAF:

METAR-TAF

Aeropuertos :

Chengdu, China

Aeropuerto Internacional de Chengdú-Shuangliu

latitud: 30-40N, longitud: 104-01E, altitud: 508 m

Observación

El informe se hizo hace 20 minutos, a las 00:00 UTC
Viento calma
Temperatura 23°C
Humedad 94%
Presión 1010 hPa
Visibilidad: 2700 m
Nubes dispersas a una altura de 5000 ft
neblina

METAR: ZUUU 260000Z 00000MPS 2700 BR SCT050 23/22 Q1010 BECMG TL0130 3000

Hora: 08:20 (00:20 UTC)

Pronóstico

El informe se hizo hace 4 horas y 18 minutos, a las 20:02 UTC
Pronóstico válido del 26 a las 00 UTC al 26 a las 24 UTC
Viento 4 kt del norte
Visibilidad: 2300 m
Nubes dispersas a una altura de 4000 ft
neblina
Evolucionando progresivamente
del 26 a las 01 UTC al 26 a las 02 UTC
Visibilidad: 3500 m

TAF: ZUUU 252002Z 2600/2624 01002MPS 2300 BR SCT040 TX26/2607Z TN20/2622Z BECMG 2601/2602 3500

Observaciones y pronósticos meteorológicos de más de 4000 aeropuertos (mensajes METAR y TAF).

Los puntos amarillos y rojos representan las estaciones disponibles.

Ponga el ratón en el punto deseado para ver el nombre de la estación.

Haga clic para ver las observaciones y los pronósticos meteorológicos.

Para cambiar el mapa : haga clic en los botones verdes con una cruz de color negro para hacer un zoom, en el botón verde con un guión para alejar o en las flechas verdes para mapas adyacentes.


METAR-TAF: